Hauptseite
METAR-TAF:

METAR-TAF

Flughäfen :

RAF Lossiemouth

Lossiemouth, Schottland

Breite: 57-43N, Länge: 003-19W, Höhe: 13 m

Beobachtung

Neuester Wetterbericht von vor 18 Minuten, um 14:20 UTC
Wind 13 kt aus Nord
Temperatur 10°C
Luftfeuchtigkeit 62%
Luftdruck 1025 hPa
Sichtweite 10 km oder mehr
Leicht bewölkt in der Höhe von 3500 ft
Aufgelockert bewölkt in der Höhe von 5000 ft

METAR: EGQS 231420Z 01013KT 9999 FEW035 SCT050 10/03 Q1025 NOSIG RMK BLU BLU

Zeit: 15:38 (14:38 UTC)

Prognose

Neuester Wetterbericht von vor 57 Minuten, um 13:41 UTC
Gültige Prognose vom 23 um 15 UTC bis 24 um 09 UTC
Wind 12 kt aus Nord
Sichtweite 10 km oder mehr
Leicht bewölkt in der Höhe von 2400 ft
Aufgelockert bewölkt in der Höhe von 4500 ft

TAF: EGQS 231341Z 2315/2409 01012KT 9999 FEW024 SCT045

Wetterbeobachtungen und Prognosen von mehr als 4000 Flughäfen (METAR und TAF Bericht).

Die verfügbaren Stationen werden durch gelbe und rote Markierungen auf der Karte dargestellt.

Führen Sie die Maus auf sie, um den Namen der Station zu sehen.

Darauf klicken, um die Beobachtung von Wetterbeobachtungen und Prognosen zu sehen.

Um die Karte zu ändern : klicken Sie auf den grünen Tasten mit einem schwarzen Kreuz Zum Vergrößern, auf den grünen Button mit einem Gedankenstrich zu verkleinern, oder auf die grünen Pfeile für benachbarte Karten.


METAR-TAF: